createdAt,value
2019-05-11T00:00:05.441Z,972.91
2019-05-11T00:01:04.826Z,972.97
2019-05-11T00:02:05.360Z,972.91
2019-05-11T00:03:05.044Z,972.85
2019-05-11T00:04:04.450Z,972.88
2019-05-11T00:05:05.094Z,972.94
2019-05-11T00:06:05.092Z,972.83
2019-05-11T00:07:05.092Z,973.00
2019-05-11T00:08:05.198Z,973.05
2019-05-11T00:09:04.638Z,972.86
2019-05-11T00:10:05.337Z,972.94
2019-05-11T00:11:04.877Z,972.94
2019-05-11T00:12:05.079Z,972.89
2019-05-11T00:13:05.171Z,972.94
2019-05-11T00:14:05.243Z,972.83
2019-05-11T00:15:05.185Z,973.03
2019-05-11T00:16:05.098Z,972.94
2019-05-11T00:17:05.273Z,972.85
2019-05-11T00:18:05.270Z,972.91
2019-05-11T00:19:05.373Z,972.94
2019-05-11T00:20:04.553Z,972.97
2019-05-11T00:21:04.574Z,972.77
2019-05-11T00:22:04.758Z,972.94
2019-05-11T00:23:05.194Z,973.00
2019-05-11T00:24:05.245Z,972.97
2019-05-11T00:25:04.784Z,973.05
2019-05-11T00:26:05.509Z,973.06
2019-05-11T00:27:04.817Z,973.14
2019-05-11T00:28:04.772Z,973.08
2019-05-11T00:29:05.002Z,973.11
2019-05-11T00:30:05.612Z,973.00
2019-05-11T00:31:04.502Z,973.11
2019-05-11T00:32:04.570Z,973.05
2019-05-11T00:33:04.687Z,973.05
2019-05-11T00:34:04.669Z,972.97
2019-05-11T00:35:04.729Z,972.86
2019-05-11T00:36:05.388Z,972.69
2019-05-11T00:37:05.396Z,972.80
2019-05-11T00:38:04.965Z,972.74
2019-05-11T00:39:04.553Z,972.66
2019-05-11T00:40:15.142Z,972.80
2019-05-11T00:41:04.734Z,972.72
2019-05-11T00:42:05.113Z,972.66
2019-05-11T00:43:05.176Z,972.63
2019-05-11T00:44:10.247Z,972.75
2019-05-11T00:45:04.742Z,972.66
2019-05-11T00:46:05.104Z,972.66
2019-05-11T00:47:04.637Z,972.75
2019-05-11T00:48:04.727Z,972.60
2019-05-11T00:49:04.730Z,972.58
2019-05-11T00:50:04.952Z,972.58
2019-05-11T00:51:04.940Z,972.72
2019-05-11T00:52:05.017Z,972.72
2019-05-11T00:53:05.161Z,972.78
2019-05-11T00:54:05.480Z,972.72
2019-05-11T00:55:04.879Z,972.69
2019-05-11T00:56:04.951Z,972.69
2019-05-11T00:57:05.351Z,972.64
2019-05-11T00:58:05.376Z,972.70
2019-05-11T00:59:04.928Z,972.61
2019-05-11T01:00:04.679Z,972.70
2019-05-11T01:01:05.420Z,972.67
2019-05-11T01:02:05.349Z,972.84
2019-05-11T01:03:04.821Z,972.70
2019-05-11T01:04:05.050Z,972.78
2019-05-11T01:05:10.161Z,972.75
2019-05-11T01:06:04.544Z,972.64
2019-05-11T01:07:04.738Z,972.75
2019-05-11T01:08:04.640Z,972.62
2019-05-11T01:09:04.674Z,972.62
2019-05-11T01:10:04.775Z,972.59
2019-05-11T01:11:04.996Z,972.62
2019-05-11T01:12:05.316Z,972.53
2019-05-11T01:13:05.365Z,972.56
2019-05-11T01:14:04.583Z,972.48
2019-05-11T01:15:05.076Z,972.48
2019-05-11T01:16:05.161Z,972.34
2019-05-11T01:17:04.660Z,972.48
2019-05-11T01:18:04.657Z,972.40
2019-05-11T01:19:05.009Z,972.34
2019-05-11T01:20:05.075Z,972.45
2019-05-11T01:21:04.979Z,972.34
2019-05-11T01:22:04.606Z,972.40
2019-05-11T01:23:05.125Z,972.42
2019-05-11T01:24:04.591Z,972.40
2019-05-11T01:25:04.996Z,972.31
2019-05-11T01:26:04.539Z,972.23
2019-05-11T01:27:04.483Z,972.14
2019-05-11T01:28:04.956Z,972.14
2019-05-11T01:29:04.476Z,972.20
2019-05-11T01:30:04.752Z,972.23
2019-05-11T01:31:05.475Z,972.06
2019-05-11T01:32:05.458Z,972.17
2019-05-11T01:33:05.171Z,972.14
2019-05-11T01:34:04.762Z,972.00
2019-05-11T01:35:05.258Z,972.14
2019-05-11T01:36:05.254Z,972.25
2019-05-11T01:37:04.405Z,972.14
2019-05-11T01:38:04.699Z,972.11
2019-05-11T01:39:04.791Z,972.06
2019-05-11T01:40:04.789Z,972.17
2019-05-11T01:41:05.040Z,972.23
2019-05-11T01:42:05.087Z,972.17
2019-05-11T01:43:05.486Z,972.11
2019-05-11T01:44:09.728Z,972.14
2019-05-11T01:45:05.190Z,972.00
2019-05-11T01:46:05.346Z,972.03
2019-05-11T01:47:05.440Z,972.03
2019-05-11T01:48:04.681Z,971.97
2019-05-11T01:49:04.599Z,971.86
2019-05-11T01:50:05.134Z,971.97
2019-05-11T01:51:04.503Z,972.00
2019-05-11T01:52:04.540Z,972.06
2019-05-11T01:53:04.773Z,971.97
2019-05-11T01:54:04.818Z,972.03
2019-05-11T01:55:04.861Z,971.92
2019-05-11T01:56:05.392Z,972.03
2019-05-11T01:57:04.813Z,971.94
2019-05-11T01:58:05.346Z,972.06
2019-05-11T01:59:05.316Z,972.06
2019-05-11T02:00:04.836Z,972.03
2019-05-11T02:01:05.198Z,971.97
2019-05-11T02:02:05.132Z,972.03
2019-05-11T02:03:05.379Z,971.83
2019-05-11T02:04:10.054Z,971.78
2019-05-11T02:05:04.470Z,971.91
2019-05-11T02:06:05.064Z,971.83
2019-05-11T02:07:05.119Z,971.83
2019-05-11T02:08:05.179Z,971.78
2019-05-11T02:09:04.590Z,971.78
2019-05-11T02:10:04.837Z,971.78
2019-05-11T02:11:16.392Z,971.78
2019-05-11T02:12:04.944Z,971.70
2019-05-11T02:13:05.090Z,971.83
2019-05-11T02:14:05.194Z,971.86
2019-05-11T02:15:05.132Z,971.61
2019-05-11T02:16:05.249Z,971.70
2019-05-11T02:17:05.378Z,971.75
2019-05-11T02:18:04.789Z,971.67
2019-05-11T02:19:05.160Z,971.70
2019-05-11T02:20:04.526Z,971.73
2019-05-11T02:21:04.886Z,971.83
2019-05-11T02:22:05.149Z,971.78
2019-05-11T02:23:04.887Z,971.89
2019-05-11T02:24:04.900Z,971.86
2019-05-11T02:25:05.132Z,971.91
2019-05-11T02:26:05.081Z,971.83
2019-05-11T02:27:04.593Z,971.78
2019-05-11T02:28:04.673Z,971.81
2019-05-11T02:29:05.206Z,971.81
2019-05-11T02:30:05.422Z,971.72
2019-05-11T02:31:04.912Z,971.83
2019-05-11T02:32:05.017Z,971.89
2019-05-11T02:33:05.130Z,971.83
2019-05-11T02:34:04.825Z,971.89
2019-05-11T02:35:05.030Z,971.94
2019-05-11T02:36:04.677Z,971.83
2019-05-11T02:37:04.665Z,971.91
2019-05-11T02:38:05.287Z,971.85
2019-05-11T02:39:05.334Z,971.85
2019-05-11T02:40:04.838Z,971.72
2019-05-11T02:41:05.388Z,971.88
2019-05-11T02:42:05.001Z,971.75
2019-05-11T02:43:04.917Z,971.80
2019-05-11T02:44:10.178Z,971.80
2019-05-11T02:45:04.599Z,971.77
2019-05-11T02:46:05.042Z,971.85
2019-05-11T02:47:05.133Z,971.71
2019-05-11T02:48:05.132Z,971.83
2019-05-11T02:49:04.784Z,971.77
2019-05-11T02:50:05.105Z,971.74
2019-05-11T02:51:05.213Z,971.65
2019-05-11T02:52:05.217Z,971.74
2019-05-11T02:53:04.475Z,971.80
2019-05-11T02:54:04.533Z,971.83
2019-05-11T02:55:04.783Z,971.80
2019-05-11T02:56:04.923Z,971.80
2019-05-11T02:57:04.985Z,971.90
2019-05-11T02:58:04.915Z,971.77
2019-05-11T02:59:05.053Z,971.65
2019-05-11T03:00:04.767Z,971.66
2019-05-11T03:01:04.829Z,971.85
2019-05-11T03:02:04.468Z,971.80
2019-05-11T03:03:04.572Z,971.77
2019-05-11T03:04:04.856Z,971.85
2019-05-11T03:05:05.144Z,971.80
2019-05-11T03:06:05.399Z,971.71
2019-05-11T03:07:04.603Z,971.80
2019-05-11T03:08:05.121Z,971.80
2019-05-11T03:09:04.749Z,971.87
2019-05-11T03:10:05.415Z,971.83
2019-05-11T03:11:05.375Z,971.83
2019-05-11T03:12:05.050Z,971.83
2019-05-11T03:13:04.880Z,971.90
2019-05-11T03:14:04.915Z,971.87
2019-05-11T03:15:04.938Z,971.90
2019-05-11T03:16:05.303Z,971.87
2019-05-11T03:17:05.049Z,971.80
2019-05-11T03:18:05.154Z,971.93
2019-05-11T03:19:05.191Z,971.87
2019-05-11T03:20:05.382Z,971.84
2019-05-11T03:21:05.176Z,971.82
2019-05-11T03:22:05.397Z,971.96
2019-05-11T03:23:04.547Z,971.80
2019-05-11T03:24:05.239Z,971.77
2019-05-11T03:25:05.267Z,971.87
2019-05-11T03:26:05.326Z,971.84
2019-05-11T03:27:04.833Z,971.98
2019-05-11T03:28:05.095Z,972.01
2019-05-11T03:29:05.066Z,971.93
2019-05-11T03:30:04.898Z,971.93
2019-05-11T03:31:05.325Z,971.77
2019-05-11T03:32:05.618Z,971.82
2019-05-11T03:33:04.688Z,971.87
2019-05-11T03:34:04.707Z,971.93
2019-05-11T03:35:05.477Z,971.93
2019-05-11T03:36:04.476Z,971.80
2019-05-11T03:37:04.734Z,971.87
2019-05-11T03:38:05.112Z,971.87
2019-05-11T03:39:04.713Z,971.84
2019-05-11T03:40:05.179Z,971.80
2019-05-11T03:41:04.668Z,971.74
2019-05-11T03:42:15.539Z,971.87
2019-05-11T03:43:05.247Z,971.80
2019-05-11T03:44:10.318Z,971.87
2019-05-11T03:45:04.799Z,971.74
2019-05-11T03:46:04.783Z,971.63
2019-05-11T03:47:04.895Z,971.63
2019-05-11T03:48:05.112Z,971.63
2019-05-11T03:49:05.468Z,971.63
2019-05-11T03:50:05.458Z,971.57
2019-05-11T03:51:04.634Z,971.46
2019-05-11T03:52:04.899Z,971.65
2019-05-11T03:53:05.060Z,971.57
2019-05-11T03:54:04.706Z,971.49
2019-05-11T03:55:04.943Z,971.57
2019-05-11T03:56:04.897Z,971.57
2019-05-11T03:57:05.144Z,971.60
2019-05-11T03:58:05.461Z,971.57
2019-05-11T03:59:05.609Z,971.43
2019-05-11T04:00:05.042Z,971.45
2019-05-11T04:01:05.003Z,971.48
2019-05-11T04:02:04.634Z,971.26
2019-05-11T04:03:05.099Z,971.43
2019-05-11T04:04:04.614Z,971.40
2019-05-11T04:05:05.303Z,971.60
2019-05-11T04:06:05.333Z,971.43
2019-05-11T04:07:05.380Z,971.37
2019-05-11T04:08:05.215Z,971.54
2019-05-11T04:09:05.423Z,971.54
2019-05-11T04:10:04.531Z,971.54
2019-05-11T04:11:05.022Z,971.54
2019-05-11T04:12:04.446Z,971.51
2019-05-11T04:13:04.567Z,971.51
2019-05-11T04:14:04.772Z,971.62
2019-05-11T04:15:05.249Z,971.65
2019-05-11T04:16:05.331Z,971.42
2019-05-11T04:17:07.112Z,971.42
2019-05-11T04:18:04.608Z,971.45
2019-05-11T04:19:04.749Z,971.48
2019-05-11T04:20:04.796Z,971.45
2019-05-11T04:21:05.268Z,971.45
2019-05-11T04:22:04.840Z,971.45
2019-05-11T04:23:05.011Z,971.45
2019-05-11T04:24:05.012Z,971.45
2019-05-11T04:25:05.034Z,971.40
2019-05-11T04:26:05.246Z,971.42
2019-05-11T04:27:04.590Z,971.51
2019-05-11T04:28:05.066Z,971.45
2019-05-11T04:29:04.658Z,971.48
2019-05-11T04:30:04.966Z,971.39
2019-05-11T04:31:05.108Z,971.39
2019-05-11T04:32:05.010Z,971.36
2019-05-11T04:33:05.552Z,971.31
2019-05-11T04:34:05.077Z,971.19
2019-05-11T04:35:04.855Z,971.36
2019-05-11T04:36:05.018Z,971.31
2019-05-11T04:37:04.532Z,971.28
2019-05-11T04:38:04.982Z,971.45
2019-05-11T04:39:05.143Z,971.28
2019-05-11T04:40:05.168Z,971.31
2019-05-11T04:41:04.659Z,971.19
2019-05-11T04:42:04.682Z,971.19
2019-05-11T04:43:04.837Z,971.39
2019-05-11T04:44:05.069Z,971.31
2019-05-11T04:45:05.051Z,971.25
2019-05-11T04:46:05.115Z,971.11
2019-05-11T04:47:05.388Z,971.28
2019-05-11T04:48:05.413Z,971.19
2019-05-11T04:49:04.685Z,971.28
2019-05-11T04:50:04.899Z,971.25
2019-05-11T04:51:04.810Z,971.28
2019-05-11T04:52:05.403Z,971.28
2019-05-11T04:53:04.619Z,971.34
2019-05-11T04:54:04.686Z,971.25
2019-05-11T04:55:04.627Z,971.25
2019-05-11T04:56:04.674Z,971.31
2019-05-11T04:57:05.038Z,971.11
2019-05-11T04:58:05.375Z,971.22
2019-05-11T04:59:04.850Z,971.22
2019-05-11T05:00:05.138Z,971.30
2019-05-11T05:01:05.226Z,971.33
2019-05-11T05:02:05.218Z,971.36
2019-05-11T05:03:05.247Z,971.25
2019-05-11T05:04:14.794Z,971.27
2019-05-11T05:05:05.449Z,971.33
2019-05-11T05:06:24.297Z,971.22
2019-05-11T05:07:10.559Z,971.27
2019-05-11T05:08:10.241Z,971.30
2019-05-11T05:09:05.527Z,971.30
2019-05-11T05:10:05.190Z,971.21
2019-05-11T05:11:05.382Z,971.24
2019-05-11T05:12:13.906Z,971.24
2019-05-11T05:13:11.205Z,971.21
2019-05-11T05:14:10.304Z,971.24
2019-05-11T05:15:05.089Z,971.18
2019-05-11T05:16:04.552Z,971.07
2019-05-11T05:17:04.617Z,971.12
2019-05-11T05:18:05.003Z,971.01
2019-05-11T05:19:05.198Z,971.07
2019-05-11T05:20:05.396Z,970.96
2019-05-11T05:21:05.394Z,971.01
2019-05-11T05:22:05.413Z,971.04
2019-05-11T05:23:04.700Z,971.04
2019-05-11T05:24:04.767Z,971.01
2019-05-11T05:25:05.265Z,971.04
2019-05-11T05:26:04.890Z,971.04
2019-05-11T05:27:05.066Z,971.07
2019-05-11T05:28:05.069Z,970.96
2019-05-11T05:29:05.417Z,971.07
2019-05-11T05:30:04.647Z,971.04
2019-05-11T05:31:04.716Z,971.10
2019-05-11T05:32:05.363Z,971.13
2019-05-11T05:33:04.701Z,971.10
2019-05-11T05:34:04.707Z,971.07
2019-05-11T05:35:04.779Z,971.16
2019-05-11T05:36:05.326Z,971.04
2019-05-11T05:37:05.419Z,971.04
2019-05-11T05:38:05.486Z,970.96
2019-05-11T05:39:09.525Z,970.93
2019-05-11T05:40:05.408Z,970.99
2019-05-11T05:41:04.612Z,970.90
2019-05-11T05:42:04.770Z,971.04
2019-05-11T05:43:05.354Z,971.07
2019-05-11T05:44:10.427Z,971.01
2019-05-11T05:45:04.771Z,971.01
2019-05-11T05:46:05.067Z,971.07
2019-05-11T05:47:05.266Z,971.07
2019-05-11T05:48:05.428Z,971.07
2019-05-11T05:49:04.742Z,971.04
2019-05-11T05:50:05.213Z,971.04
2019-05-11T05:51:04.555Z,971.27
2019-05-11T05:52:05.262Z,971.01
2019-05-11T05:53:04.716Z,971.15
2019-05-11T05:54:05.157Z,971.04
2019-05-11T05:55:04.676Z,971.09
2019-05-11T05:56:05.158Z,971.07
2019-05-11T05:57:05.333Z,971.01
2019-05-11T05:58:05.422Z,971.01
2019-05-11T05:59:04.629Z,971.15
2019-05-11T06:00:05.250Z,971.09
2019-05-11T06:01:05.417Z,970.98
2019-05-11T06:02:05.254Z,971.04
2019-05-11T06:03:05.448Z,971.07
2019-05-11T06:04:04.568Z,970.95
2019-05-11T06:05:04.941Z,971.07
2019-05-11T06:06:04.618Z,971.21
2019-05-11T06:07:05.089Z,971.18
2019-05-11T06:08:04.610Z,971.01
2019-05-11T06:09:05.240Z,971.04
2019-05-11T06:10:05.249Z,971.24
2019-05-11T06:11:04.666Z,971.24
2019-05-11T06:12:04.738Z,971.18
2019-05-11T06:13:05.279Z,971.13
2019-05-11T06:14:04.913Z,971.13
2019-05-11T06:15:05.194Z,971.18
2019-05-11T06:16:04.821Z,971.21
2019-05-11T06:17:04.975Z,971.30
2019-05-11T06:18:04.934Z,971.24
2019-05-11T06:19:05.175Z,971.15
2019-05-11T06:20:05.857Z,971.18
2019-05-11T06:21:05.176Z,971.21
2019-05-11T06:22:04.520Z,971.24
2019-05-11T06:23:05.121Z,971.21
2019-05-11T06:24:08.012Z,971.24
2019-05-11T06:25:04.883Z,971.21
2019-05-11T06:26:05.384Z,971.18
2019-05-11T06:27:16.340Z,971.24
2019-05-11T06:28:04.613Z,971.09
2019-05-11T06:29:05.101Z,971.12
2019-05-11T06:30:04.775Z,971.04
2019-05-11T06:31:05.004Z,971.12
2019-05-11T06:32:04.998Z,971.23
2019-05-11T06:33:04.984Z,971.20
2019-05-11T06:34:05.082Z,971.03
2019-05-11T06:35:04.619Z,970.95
2019-05-11T06:36:04.848Z,970.92
2019-05-11T06:37:05.169Z,971.00
2019-05-11T06:38:05.236Z,970.92
2019-05-11T06:39:04.714Z,971.03
2019-05-11T06:40:05.197Z,970.97
2019-05-11T06:41:05.355Z,971.03
2019-05-11T06:42:05.047Z,970.89
2019-05-11T06:43:05.108Z,971.09
2019-05-11T06:44:10.244Z,970.97
2019-05-11T06:45:04.591Z,971.00
2019-05-11T06:46:05.005Z,971.06
2019-05-11T06:47:04.894Z,970.94
2019-05-11T06:48:04.806Z,971.06
2019-05-11T06:49:05.362Z,970.94
2019-05-11T06:50:04.726Z,970.88
2019-05-11T06:51:05.081Z,970.88
2019-05-11T06:52:04.593Z,970.97
2019-05-11T06:53:05.286Z,970.97
2019-05-11T06:54:04.580Z,970.94
2019-05-11T06:55:04.698Z,970.97
2019-05-11T06:56:05.330Z,970.97
2019-05-11T06:57:04.533Z,970.88
2019-05-11T06:58:05.406Z,970.88
2019-05-11T06:59:04.503Z,970.91
2019-05-11T07:00:05.366Z,970.86
2019-05-11T07:01:04.917Z,970.77
2019-05-11T07:02:04.851Z,970.77
2019-05-11T07:03:05.507Z,970.91
2019-05-11T07:04:05.214Z,970.86
2019-05-11T07:05:05.297Z,970.69
2019-05-11T07:06:05.505Z,970.83
2019-05-11T07:07:04.653Z,970.69
2019-05-11T07:08:05.397Z,970.77
2019-05-11T07:09:04.861Z,970.63
2019-05-11T07:10:05.468Z,970.77
2019-05-11T07:11:04.682Z,970.63
2019-05-11T07:12:05.035Z,970.78
2019-05-11T07:13:05.655Z,970.78
2019-05-11T07:14:21.260Z,970.64
2019-05-11T07:15:05.336Z,970.69
2019-05-11T07:16:05.402Z,970.78
2019-05-11T07:17:04.678Z,970.78
2019-05-11T07:18:04.917Z,970.61
2019-05-11T07:19:05.439Z,970.58
2019-05-11T07:20:05.410Z,970.61
2019-05-11T07:21:04.632Z,970.61
2019-05-11T07:22:04.739Z,970.61
2019-05-11T07:23:04.900Z,970.58
2019-05-11T07:24:05.205Z,970.61
2019-05-11T07:25:05.369Z,970.44
2019-05-11T07:26:04.606Z,970.42
2019-05-11T07:27:05.102Z,970.28
2019-05-11T07:28:05.395Z,970.42
2019-05-11T07:29:05.498Z,970.36
2019-05-11T07:30:04.708Z,970.28
2019-05-11T07:31:04.788Z,970.25
2019-05-11T07:32:21.763Z,970.11
2019-05-11T07:33:05.189Z,970.16
2019-05-11T07:34:05.313Z,969.99
2019-05-11T07:35:05.237Z,970.11
2019-05-11T07:36:04.738Z,970.17
2019-05-11T07:37:04.981Z,970.25
2019-05-11T07:38:04.783Z,970.17
2019-05-11T07:39:05.233Z,970.17
2019-05-11T07:40:04.707Z,970.20
2019-05-11T07:41:05.151Z,970.17
2019-05-11T07:42:04.756Z,970.14
2019-05-11T07:43:10.049Z,970.17
2019-05-11T07:44:04.641Z,970.17
2019-05-11T07:45:05.531Z,970.06
2019-05-11T07:46:04.573Z,970.09
2019-05-11T07:47:04.575Z,970.09
2019-05-11T07:48:04.985Z,970.06
2019-05-11T07:49:05.204Z,969.92
2019-05-11T07:50:05.389Z,970.09
2019-05-11T07:51:05.465Z,970.03
2019-05-11T07:52:08.131Z,970.14
2019-05-11T07:53:07.927Z,970.03
2019-05-11T07:54:05.297Z,970.00
2019-05-11T07:55:05.027Z,970.05
2019-05-11T07:56:04.648Z,970.14
2019-05-11T07:57:07.290Z,970.03
2019-05-11T07:58:04.940Z,969.97
2019-05-11T07:59:04.602Z,970.00
2019-05-11T08:00:04.637Z,970.05
2019-05-11T08:01:04.973Z,970.08
2019-05-11T08:02:04.612Z,970.11
2019-05-11T08:03:04.639Z,970.02
2019-05-11T08:04:04.588Z,969.89
2019-05-11T08:05:04.765Z,970.05
2019-05-11T08:06:05.247Z,970.13
2019-05-11T08:07:07.440Z,970.19
2019-05-11T08:08:05.025Z,970.22
2019-05-11T08:09:07.941Z,970.19
2019-05-11T08:10:04.584Z,970.28
2019-05-11T08:11:04.841Z,970.28
2019-05-11T08:12:09.844Z,970.28
2019-05-11T08:13:05.276Z,970.22
2019-05-11T08:14:07.799Z,970.13
2019-05-11T08:15:13.733Z,970.22
2019-05-11T08:16:04.865Z,970.16
2019-05-11T08:17:05.281Z,969.97
2019-05-11T08:18:04.583Z,969.89
2019-05-11T08:19:10.676Z,969.92
2019-05-11T08:20:04.698Z,969.99
2019-05-11T08:21:04.720Z,969.89
2019-05-11T08:22:05.023Z,969.97
2019-05-11T08:23:04.972Z,970.03
2019-05-11T08:24:05.068Z,970.14
2019-05-11T08:25:05.415Z,969.97
2019-05-11T08:26:05.164Z,970.05
2019-05-11T08:27:05.394Z,970.14
2019-05-11T08:28:04.820Z,969.97
2019-05-11T08:29:04.745Z,970.11
2019-05-11T08:30:04.966Z,970.05
2019-05-11T08:31:05.310Z,970.08
2019-05-11T08:32:05.073Z,970.08
2019-05-11T08:33:05.102Z,970.17
2019-05-11T08:34:05.301Z,969.97
2019-05-11T08:35:04.762Z,970.14
2019-05-11T08:36:05.041Z,970.20
2019-05-11T08:37:05.370Z,970.17
2019-05-11T08:38:04.624Z,970.14
2019-05-11T08:39:04.648Z,970.14
2019-05-11T08:40:07.625Z,970.20
2019-05-11T08:41:05.007Z,970.28
2019-05-11T08:42:05.038Z,970.17
2019-05-11T08:43:04.595Z,970.11
2019-05-11T08:44:09.993Z,970.14
2019-05-11T08:45:23.796Z,970.17
2019-05-11T08:46:05.040Z,970.05
2019-05-11T08:47:04.774Z,970.11
2019-05-11T08:48:05.005Z,970.11
2019-05-11T08:49:04.895Z,970.08
2019-05-11T08:50:04.503Z,969.97
2019-05-11T08:51:04.877Z,969.97
2019-05-11T08:52:04.596Z,970.00
2019-05-11T08:53:04.889Z,970.11
2019-05-11T08:54:04.867Z,970.00
2019-05-11T08:55:04.907Z,970.00
2019-05-11T08:56:04.587Z,970.00
2019-05-11T08:57:05.067Z,970.17
2019-05-11T08:58:07.640Z,969.87
2019-05-11T08:59:04.995Z,970.14
2019-05-11T09:00:04.900Z,970.17
2019-05-11T09:01:05.427Z,970.06
2019-05-11T09:02:07.832Z,970.14
2019-05-11T09:03:05.310Z,970.09
2019-05-11T09:04:10.613Z,970.14
2019-05-11T09:05:05.108Z,970.20
2019-05-11T09:06:05.348Z,970.00
2019-05-11T09:07:04.986Z,970.11
2019-05-11T09:08:04.645Z,969.97
2019-05-11T09:09:05.039Z,970.20
2019-05-11T09:10:05.241Z,970.31
2019-05-11T09:11:04.692Z,970.03
2019-05-11T09:12:04.791Z,970.03
2019-05-11T09:13:05.381Z,970.00
2019-05-11T09:14:05.101Z,969.92
2019-05-11T09:15:04.993Z,970.03
2019-05-11T09:16:04.566Z,970.08
2019-05-11T09:17:04.783Z,970.03
2019-05-11T09:18:04.854Z,969.97
2019-05-11T09:19:05.029Z,970.08
2019-05-11T09:20:05.232Z,970.00
2019-05-11T09:21:08.085Z,970.00
2019-05-11T09:22:05.180Z,969.89
2019-05-11T09:23:04.820Z,970.08
2019-05-11T09:24:05.000Z,970.00
2019-05-11T09:25:05.685Z,969.97
2019-05-11T09:26:04.825Z,970.03
2019-05-11T09:27:04.963Z,969.92
2019-05-11T09:28:05.020Z,970.00
2019-05-11T09:29:04.835Z,969.92
2019-05-11T09:30:04.775Z,969.83
2019-05-11T09:31:05.188Z,969.89
2019-05-11T09:32:04.623Z,969.89
2019-05-11T09:33:04.895Z,970.03
2019-05-11T09:34:05.570Z,969.92
2019-05-11T09:35:04.927Z,970.02
2019-05-11T09:36:04.741Z,970.05
2019-05-11T09:37:04.479Z,969.83
2019-05-11T09:38:04.946Z,969.99
2019-05-11T09:39:05.376Z,969.89
2019-05-11T09:40:05.064Z,970.02
2019-05-11T09:41:04.618Z,969.92
2019-05-11T09:42:04.550Z,970.02
2019-05-11T09:43:05.262Z,969.99
2019-05-11T09:44:05.441Z,969.99
2019-05-11T09:45:04.567Z,969.86
2019-05-11T09:46:05.084Z,969.78
2019-05-11T09:47:05.426Z,969.77
2019-05-11T09:48:05.498Z,969.83
2019-05-11T09:49:04.719Z,969.77
2019-05-11T09:50:05.209Z,969.89
2019-05-11T09:51:07.573Z,969.89
2019-05-11T09:52:04.840Z,969.92
2019-05-11T09:53:05.197Z,969.92
2019-05-11T09:54:10.112Z,969.99
2019-05-11T09:55:04.787Z,969.91
2019-05-11T09:56:04.782Z,969.99
2019-05-11T09:57:05.100Z,969.91
2019-05-11T09:58:05.178Z,969.99
2019-05-11T09:59:05.586Z,969.91
2019-05-11T10:00:05.528Z,970.04
2019-05-11T10:01:05.001Z,969.91
2019-05-11T10:02:05.190Z,969.83
2019-05-11T10:03:04.538Z,969.99
2019-05-11T10:04:05.325Z,969.96
2019-05-11T10:05:05.354Z,970.07
2019-05-11T10:06:05.359Z,969.99
2019-05-11T10:07:05.200Z,969.98
2019-05-11T10:08:04.667Z,969.85
2019-05-11T10:09:05.201Z,970.01
2019-05-11T10:10:05.137Z,969.82
2019-05-11T10:11:05.165Z,969.79
2019-05-11T10:12:07.899Z,969.90
2019-05-11T10:13:05.228Z,969.87
2019-05-11T10:14:04.553Z,970.12
2019-05-11T10:15:05.336Z,969.98
2019-05-11T10:16:10.600Z,969.98
2019-05-11T10:17:04.715Z,969.87
2019-05-11T10:18:07.906Z,969.97
2019-05-11T10:19:08.171Z,969.87
2019-05-11T10:20:05.479Z,969.84
2019-05-11T10:21:04.922Z,970.09
2019-05-11T10:22:05.214Z,970.14
2019-05-11T10:23:05.206Z,970.00
2019-05-11T10:24:05.648Z,970.09
2019-05-11T10:25:05.550Z,970.06
2019-05-11T10:26:07.700Z,969.89
2019-05-11T10:27:08.148Z,970.03
2019-05-11T10:28:05.127Z,970.06
2019-05-11T10:29:05.113Z,970.00
2019-05-11T10:30:07.514Z,970.06
2019-05-11T10:31:08.266Z,970.11
2019-05-11T10:32:08.529Z,969.92
2019-05-11T10:33:08.022Z,970.08
2019-05-11T10:34:05.093Z,970.03
2019-05-11T10:35:07.887Z,970.14
2019-05-11T10:36:07.906Z,970.28
2019-05-11T10:37:04.975Z,970.08
2019-05-11T10:38:05.905Z,970.11
2019-05-11T10:39:07.844Z,970.11
2019-05-11T10:40:05.779Z,970.17
2019-05-11T10:41:05.546Z,970.14
2019-05-11T10:42:05.222Z,970.11
2019-05-11T10:43:08.458Z,970.00
2019-05-11T10:44:07.608Z,970.05
2019-05-11T10:45:05.404Z,970.08
2019-05-11T10:46:23.415Z,970.02
2019-05-11T10:47:05.197Z,969.97
2019-05-11T10:48:05.376Z,970.02
2019-05-11T10:49:05.092Z,969.96
2019-05-11T10:50:05.478Z,970.05
2019-05-11T10:51:07.969Z,969.91
2019-05-11T10:52:05.984Z,969.91
2019-05-11T10:53:07.753Z,969.91
2019-05-11T10:54:08.291Z,969.86
2019-05-11T10:55:08.292Z,969.91
2019-05-11T10:56:05.416Z,970.05
2019-05-11T10:57:05.603Z,969.86
2019-05-11T10:58:05.462Z,969.91
2019-05-11T10:59:07.734Z,969.91
2019-05-11T11:00:05.461Z,969.82
2019-05-11T11:01:05.047Z,969.82
2019-05-11T11:02:07.811Z,969.85
2019-05-11T11:03:08.178Z,969.91
2019-05-11T11:04:07.213Z,969.88
2019-05-11T11:05:05.020Z,969.91
2019-05-11T11:06:05.608Z,969.88
2019-05-11T11:07:04.805Z,969.88
2019-05-11T11:08:07.999Z,969.93
2019-05-11T11:09:08.117Z,969.85
2019-05-11T11:10:05.922Z,969.96
2019-05-11T11:11:05.144Z,970.01
2019-05-11T11:12:05.101Z,969.91
2019-05-11T11:13:07.689Z,969.98
2019-05-11T11:14:05.124Z,970.13
2019-05-11T11:15:08.204Z,970.01
2019-05-11T11:16:05.262Z,969.98
2019-05-11T11:17:05.540Z,970.16
2019-05-11T11:18:05.155Z,970.01
2019-05-11T11:19:07.429Z,970.04
2019-05-11T11:20:05.231Z,969.96
2019-05-11T11:21:08.032Z,969.91
2019-05-11T11:22:39.282Z,969.93
2019-05-11T11:23:05.521Z,969.98
2019-05-11T11:24:04.982Z,970.04
2019-05-11T11:25:07.691Z,970.09
2019-05-11T11:26:08.095Z,970.06
2019-05-11T11:27:10.875Z,970.06
2019-05-11T11:28:08.232Z,970.14
2019-05-11T11:29:05.504Z,970.09
2019-05-11T11:30:05.697Z,970.03
2019-05-11T11:31:07.588Z,970.06
2019-05-11T11:32:07.808Z,970.08
2019-05-11T11:33:05.116Z,970.02
2019-05-11T11:34:08.001Z,969.97
2019-05-11T11:35:05.385Z,970.02
2019-05-11T11:36:05.749Z,970.05
2019-05-11T11:37:05.235Z,970.13
2019-05-11T11:38:05.546Z,970.10
2019-05-11T11:39:04.967Z,969.86
2019-05-11T11:40:08.185Z,970.07
2019-05-11T11:41:07.596Z,969.88
2019-05-11T11:42:05.204Z,969.83
2019-05-11T11:43:05.979Z,970.02
2019-05-11T11:44:08.419Z,969.83
2019-05-11T11:45:05.134Z,969.96
2019-05-11T11:46:05.161Z,969.83
2019-05-11T11:47:05.078Z,969.88
2019-05-11T11:48:05.802Z,970.04
2019-05-11T11:49:05.657Z,969.96
2019-05-11T11:50:05.444Z,969.91
2019-05-11T11:51:05.242Z,970.10
2019-05-11T11:52:05.142Z,970.07
2019-05-11T11:53:05.326Z,970.07
2019-05-11T11:54:05.715Z,970.04
2019-05-11T11:55:08.011Z,970.24
2019-05-11T11:56:05.492Z,970.10
2019-05-11T11:57:07.502Z,970.16
2019-05-11T11:58:05.553Z,970.21
2019-05-11T11:59:05.594Z,970.18
2019-05-11T12:00:05.130Z,970.15
2019-05-11T12:01:09.009Z,970.24
2019-05-11T12:02:08.375Z,970.15
2019-05-11T12:03:07.749Z,970.13
2019-05-11T12:04:07.716Z,970.10
2019-05-11T12:05:05.553Z,970.24
2019-05-11T12:06:05.791Z,970.18
2019-05-11T12:07:05.816Z,970.35
2019-05-11T12:08:08.108Z,970.30
2019-05-11T12:09:05.605Z,970.38
2019-05-11T12:10:08.416Z,970.27
2019-05-11T12:11:07.837Z,970.32
2019-05-11T12:12:05.045Z,970.41
2019-05-11T12:13:05.251Z,970.46
2019-05-11T12:14:08.458Z,970.48
2019-05-11T12:15:08.627Z,970.35
2019-05-11T12:16:08.300Z,970.41
2019-05-11T12:17:11.079Z,970.35
2019-05-11T12:18:05.430Z,970.54
2019-05-11T12:19:08.129Z,970.57
2019-05-11T12:20:05.591Z,970.48
2019-05-11T12:21:07.943Z,970.46
2019-05-11T12:22:05.077Z,970.57
2019-05-11T12:23:05.710Z,970.57
2019-05-11T12:24:08.071Z,970.65
2019-05-11T12:25:05.155Z,970.68
2019-05-11T12:26:05.699Z,970.68
2019-05-11T12:27:07.501Z,970.68
2019-05-11T12:28:07.779Z,970.76